sensor_id;sensor_type;location;lat;lon;timestamp;temperature;humidity
70807;DHT22;58882;52.170;5.386;2022-10-31T00:01:15;19.00;62.50
70807;DHT22;58882;52.170;5.386;2022-10-31T00:03:42;19.10;62.60
70807;DHT22;58882;52.170;5.386;2022-10-31T00:06:09;19.10;62.50
70807;DHT22;58882;52.170;5.386;2022-10-31T00:08:36;19.00;62.60
70807;DHT22;58882;52.170;5.386;2022-10-31T00:11:03;19.00;62.60
70807;DHT22;58882;52.170;5.386;2022-10-31T00:13:29;19.00;62.80
70807;DHT22;58882;52.170;5.386;2022-10-31T00:15:57;19.00;63.00
70807;DHT22;58882;52.170;5.386;2022-10-31T00:18:24;19.00;63.10
70807;DHT22;58882;52.170;5.386;2022-10-31T00:20:59;19.00;63.20
70807;DHT22;58882;52.170;5.386;2022-10-31T00:23:26;19.00;63.20
70807;DHT22;58882;52.170;5.386;2022-10-31T00:25:53;19.10;63.20
70807;DHT22;58882;52.170;5.386;2022-10-31T00:28:19;19.10;62.90
70807;DHT22;58882;52.170;5.386;2022-10-31T00:30:46;19.10;62.90
70807;DHT22;58882;52.170;5.386;2022-10-31T00:33:13;19.00;62.90
70807;DHT22;58882;52.170;5.386;2022-10-31T00:35:40;19.00;63.00
70807;DHT22;58882;52.170;5.386;2022-10-31T00:38:07;19.00;63.00
70807;DHT22;58882;52.170;5.386;2022-10-31T00:40:34;19.00;63.00
70807;DHT22;58882;52.170;5.386;2022-10-31T00:43:00;19.00;62.70
70807;DHT22;58882;52.170;5.386;2022-10-31T00:45:28;19.00;62.60
70807;DHT22;58882;52.170;5.386;2022-10-31T00:47:55;19.00;62.60
70807;DHT22;58882;52.170;5.386;2022-10-31T00:50:22;19.00;62.50
70807;DHT22;58882;52.170;5.386;2022-10-31T00:52:49;19.00;62.60
70807;DHT22;58882;52.170;5.386;2022-10-31T00:55:16;18.90;62.50
70807;DHT22;58882;52.170;5.386;2022-10-31T00:57:45;18.90;62.60
70807;DHT22;58882;52.170;5.386;2022-10-31T01:00:12;18.90;62.70
70807;DHT22;58882;52.170;5.386;2022-10-31T01:02:39;18.90;62.80
70807;DHT22;58882;52.170;5.386;2022-10-31T01:05:07;18.90;62.70
70807;DHT22;58882;52.170;5.386;2022-10-31T01:07:39;18.90;62.70
70807;DHT22;58882;52.170;5.386;2022-10-31T01:10:09;18.90;62.60
70807;DHT22;58882;52.170;5.386;2022-10-31T01:12:41;18.90;62.60
70807;DHT22;58882;52.170;5.386;2022-10-31T01:15:09;18.90;62.70
70807;DHT22;58882;52.170;5.386;2022-10-31T01:17:36;18.90;62.80
70807;DHT22;58882;52.170;5.386;2022-10-31T01:20:04;18.90;62.80
70807;DHT22;58882;52.170;5.386;2022-10-31T01:22:32;18.90;62.90
70807;DHT22;58882;52.170;5.386;2022-10-31T01:24:59;18.90;62.80
70807;DHT22;58882;52.170;5.386;2022-10-31T01:27:26;18.90;62.90
70807;DHT22;58882;52.170;5.386;2022-10-31T01:29:53;18.90;63.80
70807;DHT22;58882;52.170;5.386;2022-10-31T01:32:20;18.90;63.30
70807;DHT22;58882;52.170;5.386;2022-10-31T01:34:48;18.90;62.70
70807;DHT22;58882;52.170;5.386;2022-10-31T01:37:16;18.90;62.50
70807;DHT22;58882;52.170;5.386;2022-10-31T01:39:42;18.90;62.60
70807;DHT22;58882;52.170;5.386;2022-10-31T01:42:18;18.90;63.60
70807;DHT22;58882;52.170;5.386;2022-10-31T01:44:55;18.90;63.50
70807;DHT22;58882;52.170;5.386;2022-10-31T01:47:36;18.90;62.50
70807;DHT22;58882;52.170;5.386;2022-10-31T01:50:13;18.90;62.60
70807;DHT22;58882;52.170;5.386;2022-10-31T01:52:45;18.90;62.60
70807;DHT22;58882;52.170;5.386;2022-10-31T01:55:35;18.90;62.70
70807;DHT22;58882;52.170;5.386;2022-10-31T01:58:08;18.90;62.60
70807;DHT22;58882;52.170;5.386;2022-10-31T02:00:36;18.90;62.50
70807;DHT22;58882;52.170;5.386;2022-10-31T02:03:03;18.90;62.40
70807;DHT22;58882;52.170;5.386;2022-10-31T02:05:31;18.80;62.40
70807;DHT22;58882;52.170;5.386;2022-10-31T02:08:06;18.80;62.60
70807;DHT22;58882;52.170;5.386;2022-10-31T02:10:35;18.80;62.70
70807;DHT22;58882;52.170;5.386;2022-10-31T02:13:06;18.90;62.70
70807;DHT22;58882;52.170;5.386;2022-10-31T02:15:40;18.90;62.60
70807;DHT22;58882;52.170;5.386;2022-10-31T02:18:07;18.80;62.30
70807;DHT22;58882;52.170;5.386;2022-10-31T02:23:21;18.80;62.60
70807;DHT22;58882;52.170;5.386;2022-10-31T02:40:07;18.70;62.60
70807;DHT22;58882;52.170;5.386;2022-10-31T02:43:06;18.70;62.50
70807;DHT22;58882;52.170;5.386;2022-10-31T02:45:47;18.70;62.40
70807;DHT22;58882;52.170;5.386;2022-10-31T02:48:23;18.70;62.40
70807;DHT22;58882;52.170;5.386;2022-10-31T02:50:58;18.70;62.30
70807;DHT22;58882;52.170;5.386;2022-10-31T02:53:26;18.70;62.40
70807;DHT22;58882;52.170;5.386;2022-10-31T02:56:18;18.70;62.40
70807;DHT22;58882;52.170;5.386;2022-10-31T02:58:50;18.70;62.20
70807;DHT22;58882;52.170;5.386;2022-10-31T03:04:15;18.70;62.30
70807;DHT22;58882;52.170;5.386;2022-10-31T03:06:56;18.70;62.20
70807;DHT22;58882;52.170;5.386;2022-10-31T03:13:01;18.70;62.10
70807;DHT22;58882;52.170;5.386;2022-10-31T03:15:34;18.60;62.10
70807;DHT22;58882;52.170;5.386;2022-10-31T03:18:29;18.60;62.20
70807;DHT22;58882;52.170;5.386;2022-10-31T03:21:01;18.60;62.30
70807;DHT22;58882;52.170;5.386;2022-10-31T03:23:32;18.60;62.10
70807;DHT22;58882;52.170;5.386;2022-10-31T03:26:00;18.60;63.00
70807;DHT22;58882;52.170;5.386;2022-10-31T03:28:33;18.50;62.10
70807;DHT22;58882;52.170;5.386;2022-10-31T03:31:04;18.50;62.20
70807;DHT22;58882;52.170;5.386;2022-10-31T03:33:37;18.50;62.20
70807;DHT22;58882;52.170;5.386;2022-10-31T03:36:07;18.50;62.40
70807;DHT22;58882;52.170;5.386;2022-10-31T03:38:36;18.50;62.40
70807;DHT22;58882;52.170;5.386;2022-10-31T03:41:06;18.50;62.40
70807;DHT22;58882;52.170;5.386;2022-10-31T03:43:40;18.50;62.40
70807;DHT22;58882;52.170;5.386;2022-10-31T03:46:09;18.50;62.50
70807;DHT22;58882;52.170;5.386;2022-10-31T03:48:36;18.50;62.50
70807;DHT22;58882;52.170;5.386;2022-10-31T03:51:16;18.50;62.50
70807;DHT22;58882;52.170;5.386;2022-10-31T03:53:49;18.50;62.40
70807;DHT22;58882;52.170;5.386;2022-10-31T04:01:53;18.40;62.30
70807;DHT22;58882;52.170;5.386;2022-10-31T04:04:22;18.40;62.20
70807;DHT22;58882;52.170;5.386;2022-10-31T04:06:50;18.40;62.40
70807;DHT22;58882;52.170;5.386;2022-10-31T04:09:18;18.40;62.50
70807;DHT22;58882;52.170;5.386;2022-10-31T04:11:51;18.30;62.50
70807;DHT22;58882;52.170;5.386;2022-10-31T04:14:35;18.40;62.20
70807;DHT22;58882;52.170;5.386;2022-10-31T04:17:06;18.30;62.00
70807;DHT22;58882;52.170;5.386;2022-10-31T04:19:37;18.30;61.90
70807;DHT22;58882;52.170;5.386;2022-10-31T04:22:04;18.30;62.10
70807;DHT22;58882;52.170;5.386;2022-10-31T04:24:31;18.20;62.00
70807;DHT22;58882;52.170;5.386;2022-10-31T04:26:58;18.20;62.30
70807;DHT22;58882;52.170;5.386;2022-10-31T04:29:25;18.20;62.00
70807;DHT22;58882;52.170;5.386;2022-10-31T04:31:52;18.20;62.00
70807;DHT22;58882;52.170;5.386;2022-10-31T04:34:19;18.20;63.00
70807;DHT22;58882;52.170;5.386;2022-10-31T04:36:45;18.20;62.10
70807;DHT22;58882;52.170;5.386;2022-10-31T04:39:15;18.20;62.10
70807;DHT22;58882;52.170;5.386;2022-10-31T04:42:00;18.30;62.10
70807;DHT22;58882;52.170;5.386;2022-10-31T04:44:26;18.30;62.10
70807;DHT22;58882;52.170;5.386;2022-10-31T04:46:55;18.30;62.20
70807;DHT22;58882;52.170;5.386;2022-10-31T04:49:22;18.30;62.30
70807;DHT22;58882;52.170;5.386;2022-10-31T04:51:48;18.30;62.20
70807;DHT22;58882;52.170;5.386;2022-10-31T04:54:15;18.30;61.90
70807;DHT22;58882;52.170;5.386;2022-10-31T04:57:02;18.30;61.90
70807;DHT22;58882;52.170;5.386;2022-10-31T04:59:30;18.30;61.80
70807;DHT22;58882;52.170;5.386;2022-10-31T05:01:58;18.30;61.80
70807;DHT22;58882;52.170;5.386;2022-10-31T05:04:52;18.20;61.90
70807;DHT22;58882;52.170;5.386;2022-10-31T05:07:19;18.20;62.10
70807;DHT22;58882;52.170;5.386;2022-10-31T05:09:46;18.20;62.20
70807;DHT22;58882;52.170;5.386;2022-10-31T05:12:13;18.20;62.10
70807;DHT22;58882;52.170;5.386;2022-10-31T05:15:09;18.20;62.10
70807;DHT22;58882;52.170;5.386;2022-10-31T05:17:55;18.20;62.00
70807;DHT22;58882;52.170;5.386;2022-10-31T05:20:40;18.20;61.80
70807;DHT22;58882;52.170;5.386;2022-10-31T05:23:24;18.20;61.70
70807;DHT22;58882;52.170;5.386;2022-10-31T05:25:51;18.20;61.70
70807;DHT22;58882;52.170;5.386;2022-10-31T05:28:18;18.20;61.50
70807;DHT22;58882;52.170;5.386;2022-10-31T05:30:45;18.20;61.40
70807;DHT22;58882;52.170;5.386;2022-10-31T05:33:14;18.20;61.30
70807;DHT22;58882;52.170;5.386;2022-10-31T05:35:41;18.30;61.30
70807;DHT22;58882;52.170;5.386;2022-10-31T05:38:34;18.30;61.20
70807;DHT22;58882;52.170;5.386;2022-10-31T05:41:09;18.20;61.90
70807;DHT22;58882;52.170;5.386;2022-10-31T05:43:38;18.20;60.90
70807;DHT22;58882;52.170;5.386;2022-10-31T05:46:05;18.20;60.90
70807;DHT22;58882;52.170;5.386;2022-10-31T05:48:51;18.20;60.90
70807;DHT22;58882;52.170;5.386;2022-10-31T05:51:36;18.20;60.90
70807;DHT22;58882;52.170;5.386;2022-10-31T05:54:03;18.20;60.70
70807;DHT22;58882;52.170;5.386;2022-10-31T05:56:30;18.20;60.60
70807;DHT22;58882;52.170;5.386;2022-10-31T05:58:57;18.10;60.50
70807;DHT22;58882;52.170;5.386;2022-10-31T06:01:25;18.10;60.40
70807;DHT22;58882;52.170;5.386;2022-10-31T06:03:52;18.10;60.40
70807;DHT22;58882;52.170;5.386;2022-10-31T06:06:22;18.00;60.30
70807;DHT22;58882;52.170;5.386;2022-10-31T06:08:49;18.00;60.30
70807;DHT22;58882;52.170;5.386;2022-10-31T06:11:19;18.00;60.40
70807;DHT22;58882;52.170;5.386;2022-10-31T06:14:01;17.90;60.40
70807;DHT22;58882;52.170;5.386;2022-10-31T06:16:34;17.90;60.40
70807;DHT22;58882;52.170;5.386;2022-10-31T06:19:21;17.90;60.50
70807;DHT22;58882;52.170;5.386;2022-10-31T06:21:48;17.90;60.40
70807;DHT22;58882;52.170;5.386;2022-10-31T06:24:15;17.90;60.30
70807;DHT22;58882;52.170;5.386;2022-10-31T06:27:16;17.90;60.20
70807;DHT22;58882;52.170;5.386;2022-10-31T06:29:42;17.90;60.20
70807;DHT22;58882;52.170;5.386;2022-10-31T06:32:14;17.90;60.10
70807;DHT22;58882;52.170;5.386;2022-10-31T06:34:43;17.90;60.00
70807;DHT22;58882;52.170;5.386;2022-10-31T06:37:11;17.90;60.00
70807;DHT22;58882;52.170;5.386;2022-10-31T06:39:41;17.80;59.90
70807;DHT22;58882;52.170;5.386;2022-10-31T06:42:10;17.90;59.90
70807;DHT22;58882;52.170;5.386;2022-10-31T06:44:36;17.90;59.80
70807;DHT22;58882;52.170;5.386;2022-10-31T06:47:22;17.90;59.60
70807;DHT22;58882;52.170;5.386;2022-10-31T06:49:57;17.80;59.70
70807;DHT22;58882;52.170;5.386;2022-10-31T06:52:24;17.80;59.70
70807;DHT22;58882;52.170;5.386;2022-10-31T06:54:52;17.80;59.70
70807;DHT22;58882;52.170;5.386;2022-10-31T06:57:20;17.70;59.60
70807;DHT22;58882;52.170;5.386;2022-10-31T06:59:46;17.70;59.70
70807;DHT22;58882;52.170;5.386;2022-10-31T07:02:17;17.70;59.80
70807;DHT22;58882;52.170;5.386;2022-10-31T07:04:44;17.70;59.80
70807;DHT22;58882;52.170;5.386;2022-10-31T07:07:16;17.70;59.70
70807;DHT22;58882;52.170;5.386;2022-10-31T07:09:44;17.70;59.60
70807;DHT22;58882;52.170;5.386;2022-10-31T07:12:13;17.70;59.60
70807;DHT22;58882;52.170;5.386;2022-10-31T07:14:48;17.70;59.60
70807;DHT22;58882;52.170;5.386;2022-10-31T07:17:15;17.80;59.60
70807;DHT22;58882;52.170;5.386;2022-10-31T07:19:43;17.80;59.50
70807;DHT22;58882;52.170;5.386;2022-10-31T07:22:12;17.80;59.30
70807;DHT22;58882;52.170;5.386;2022-10-31T07:24:42;17.90;59.30
70807;DHT22;58882;52.170;5.386;2022-10-31T07:27:09;17.90;59.20
70807;DHT22;58882;52.170;5.386;2022-10-31T07:29:36;17.90;59.20
70807;DHT22;58882;52.170;5.386;2022-10-31T07:32:03;17.90;59.10
70807;DHT22;58882;52.170;5.386;2022-10-31T07:34:32;17.90;59.00
70807;DHT22;58882;52.170;5.386;2022-10-31T07:37:15;17.90;58.90
70807;DHT22;58882;52.170;5.386;2022-10-31T07:39:42;17.90;58.90
70807;DHT22;58882;52.170;5.386;2022-10-31T07:42:09;18.00;58.90
70807;DHT22;58882;52.170;5.386;2022-10-31T07:44:36;18.00;58.80
70807;DHT22;58882;52.170;5.386;2022-10-31T07:47:22;18.00;58.70
70807;DHT22;58882;52.170;5.386;2022-10-31T07:50:08;18.00;58.70
70807;DHT22;58882;52.170;5.386;2022-10-31T07:53:10;18.10;58.60
70807;DHT22;58882;52.170;5.386;2022-10-31T07:55:49;18.10;59.50
70807;DHT22;58882;52.170;5.386;2022-10-31T07:58:17;18.10;58.40
70807;DHT22;58882;52.170;5.386;2022-10-31T08:00:46;18.10;58.30
70807;DHT22;58882;52.170;5.386;2022-10-31T08:03:19;18.20;59.30
70807;DHT22;58882;52.170;5.386;2022-10-31T08:05:46;18.20;58.30
70807;DHT22;58882;52.170;5.386;2022-10-31T08:08:42;18.30;58.20
70807;DHT22;58882;52.170;5.386;2022-10-31T08:11:09;18.30;58.10
70807;DHT22;58882;52.170;5.386;2022-10-31T08:13:37;18.40;57.90
70807;DHT22;58882;52.170;5.386;2022-10-31T08:16:04;18.50;57.80
70807;DHT22;58882;52.170;5.386;2022-10-31T08:18:37;18.50;57.80
70807;DHT22;58882;52.170;5.386;2022-10-31T08:21:07;18.60;57.80
70807;DHT22;58882;52.170;5.386;2022-10-31T08:23:34;18.60;57.60
70807;DHT22;58882;52.170;5.386;2022-10-31T08:26:01;18.70;57.50
70807;DHT22;58882;52.170;5.386;2022-10-31T08:28:29;18.70;57.50
70807;DHT22;58882;52.170;5.386;2022-10-31T08:30:57;18.80;57.60
70807;DHT22;58882;52.170;5.386;2022-10-31T08:33:47;18.90;57.50
70807;DHT22;58882;52.170;5.386;2022-10-31T08:36:27;19.20;57.40
70807;DHT22;58882;52.170;5.386;2022-10-31T08:39:19;19.40;56.90
70807;DHT22;58882;52.170;5.386;2022-10-31T08:41:46;19.70;56.60
70807;DHT22;58882;52.170;5.386;2022-10-31T08:44:13;19.80;56.10
70807;DHT22;58882;52.170;5.386;2022-10-31T08:46:42;19.90;55.80
70807;DHT22;58882;52.170;5.386;2022-10-31T08:49:09;19.90;55.60
70807;DHT22;58882;52.170;5.386;2022-10-31T08:51:37;19.90;55.60
70807;DHT22;58882;52.170;5.386;2022-10-31T08:54:04;19.90;55.50
70807;DHT22;58882;52.170;5.386;2022-10-31T08:56:53;19.90;55.70
70807;DHT22;58882;52.170;5.386;2022-10-31T08:59:31;19.90;55.80
70807;DHT22;58882;52.170;5.386;2022-10-31T09:02:16;19.90;55.80
70807;DHT22;58882;52.170;5.386;2022-10-31T09:04:43;19.90;55.80
70807;DHT22;58882;52.170;5.386;2022-10-31T09:07:10;19.90;55.80
70807;DHT22;58882;52.170;5.386;2022-10-31T09:09:53;20.00;56.00
70807;DHT22;58882;52.170;5.386;2022-10-31T09:12:20;20.10;56.00
70807;DHT22;58882;52.170;5.386;2022-10-31T09:15:06;20.30;55.70
70807;DHT22;58882;52.170;5.386;2022-10-31T09:17:54;20.50;55.40
70807;DHT22;58882;52.170;5.386;2022-10-31T09:20:38;20.70;55.00
70807;DHT22;58882;52.170;5.386;2022-10-31T09:23:10;21.00;54.70
70807;DHT22;58882;52.170;5.386;2022-10-31T09:25:38;21.20;54.00
70807;DHT22;58882;52.170;5.386;2022-10-31T09:28:26;21.40;53.50
70807;DHT22;58882;52.170;5.386;2022-10-31T09:30:56;21.50;53.20
70807;DHT22;58882;52.170;5.386;2022-10-31T09:33:42;21.50;53.20
70807;DHT22;58882;52.170;5.386;2022-10-31T09:36:36;21.60;54.20
70807;DHT22;58882;52.170;5.386;2022-10-31T09:39:04;21.80;53.20
70807;DHT22;58882;52.170;5.386;2022-10-31T09:42:07;21.80;52.90
70807;DHT22;58882;52.170;5.386;2022-10-31T09:47:40;22.00;52.70
70807;DHT22;58882;52.170;5.386;2022-10-31T09:55:57;21.90;52.90
70807;DHT22;58882;52.170;5.386;2022-10-31T09:58:26;21.90;52.90
70807;DHT22;58882;52.170;5.386;2022-10-31T10:00:58;21.90;53.20
70807;DHT22;58882;52.170;5.386;2022-10-31T10:03:45;21.90;54.20
70807;DHT22;58882;52.170;5.386;2022-10-31T10:06:35;21.80;53.50
70807;DHT22;58882;52.170;5.386;2022-10-31T10:09:30;21.80;53.60
70807;DHT22;58882;52.170;5.386;2022-10-31T10:16:03;21.90;53.80
70807;DHT22;58882;52.170;5.386;2022-10-31T10:27:22;21.80;53.90
70807;DHT22;58882;52.170;5.386;2022-10-31T10:29:50;21.70;54.00
70807;DHT22;58882;52.170;5.386;2022-10-31T10:32:24;21.70;54.20
70807;DHT22;58882;52.170;5.386;2022-10-31T10:37:39;21.60;54.50
70807;DHT22;58882;52.170;5.386;2022-10-31T10:40:11;21.60;54.70
70807;DHT22;58882;52.170;5.386;2022-10-31T10:42:40;21.50;54.80
70807;DHT22;58882;52.170;5.386;2022-10-31T10:45:27;21.50;54.90
70807;DHT22;58882;52.170;5.386;2022-10-31T10:48:28;21.50;54.90
70807;DHT22;58882;52.170;5.386;2022-10-31T10:50:57;21.50;54.90
70807;DHT22;58882;52.170;5.386;2022-10-31T10:53:44;21.60;55.00
70807;DHT22;58882;52.170;5.386;2022-10-31T10:57:02;21.50;55.00
70807;DHT22;58882;52.170;5.386;2022-10-31T10:59:32;21.50;55.00
70807;DHT22;58882;52.170;5.386;2022-10-31T11:01:58;21.50;55.10
70807;DHT22;58882;52.170;5.386;2022-10-31T11:04:31;21.50;55.20
70807;DHT22;58882;52.170;5.386;2022-10-31T11:06:59;21.50;55.20
70807;DHT22;58882;52.170;5.386;2022-10-31T11:09:26;21.60;55.20
70807;DHT22;58882;52.170;5.386;2022-10-31T11:11:54;21.60;55.20
70807;DHT22;58882;52.170;5.386;2022-10-31T11:14:22;21.60;55.10
70807;DHT22;58882;52.170;5.386;2022-10-31T11:17:06;21.60;55.00
70807;DHT22;58882;52.170;5.386;2022-10-31T11:19:34;21.60;55.00
70807;DHT22;58882;52.170;5.386;2022-10-31T11:22:12;21.60;56.00
70807;DHT22;58882;52.170;5.386;2022-10-31T11:24:41;21.60;55.10
70807;DHT22;58882;52.170;5.386;2022-10-31T11:27:22;21.50;54.90
70807;DHT22;58882;52.170;5.386;2022-10-31T11:29:49;21.60;55.00
70807;DHT22;58882;52.170;5.386;2022-10-31T11:32:26;21.70;55.10
70807;DHT22;58882;52.170;5.386;2022-10-31T11:35:00;21.70;54.80
70807;DHT22;58882;52.170;5.386;2022-10-31T11:37:30;21.70;54.70
70807;DHT22;58882;52.170;5.386;2022-10-31T11:40:01;21.80;54.50
70807;DHT22;58882;52.170;5.386;2022-10-31T11:42:36;21.80;54.50
70807;DHT22;58882;52.170;5.386;2022-10-31T11:45:28;21.90;54.50
70807;DHT22;58882;52.170;5.386;2022-10-31T11:47:57;21.90;54.30
70807;DHT22;58882;52.170;5.386;2022-10-31T11:53:00;21.90;54.20
70807;DHT22;58882;52.170;5.386;2022-10-31T11:55:33;21.90;54.20
70807;DHT22;58882;52.170;5.386;2022-10-31T11:58:01;22.00;54.30
70807;DHT22;58882;52.170;5.386;2022-10-31T12:00:31;22.00;54.10
70807;DHT22;58882;52.170;5.386;2022-10-31T12:05:39;21.90;54.10
70807;DHT22;58882;52.170;5.386;2022-10-31T12:08:12;21.90;54.10
70807;DHT22;58882;52.170;5.386;2022-10-31T12:16:50;21.80;54.40
70807;DHT22;58882;52.170;5.386;2022-10-31T12:19:35;21.70;54.40
70807;DHT22;58882;52.170;5.386;2022-10-31T12:23:00;21.70;54.60
70807;DHT22;58882;52.170;5.386;2022-10-31T12:30:58;21.60;54.80
70807;DHT22;58882;52.170;5.386;2022-10-31T12:36:50;21.60;54.70
70807;DHT22;58882;52.170;5.386;2022-10-31T12:45:49;21.60;54.70
70807;DHT22;58882;52.170;5.386;2022-10-31T12:50:58;21.60;54.70
70807;DHT22;58882;52.170;5.386;2022-10-31T12:58:50;21.60;55.80
70807;DHT22;58882;52.170;5.386;2022-10-31T13:01:29;21.60;54.90
70807;DHT22;58882;52.170;5.386;2022-10-31T13:04:34;21.60;54.80
70807;DHT22;58882;52.170;5.386;2022-10-31T13:07:05;21.60;54.90
70807;DHT22;58882;52.170;5.386;2022-10-31T13:10:02;21.70;54.90
70807;DHT22;58882;52.170;5.386;2022-10-31T13:12:32;21.60;54.90
70807;DHT22;58882;52.170;5.386;2022-10-31T13:15:12;21.60;55.00
70807;DHT22;58882;52.170;5.386;2022-10-31T13:17:48;21.60;55.00
70807;DHT22;58882;52.170;5.386;2022-10-31T13:20:34;21.60;55.00
70807;DHT22;58882;52.170;5.386;2022-10-31T13:23:27;21.60;56.10
70807;DHT22;58882;52.170;5.386;2022-10-31T13:26:13;21.60;55.20
70807;DHT22;58882;52.170;5.386;2022-10-31T13:31:33;21.60;55.40
70807;DHT22;58882;52.170;5.386;2022-10-31T13:34:45;21.50;55.40
70807;DHT22;58882;52.170;5.386;2022-10-31T13:37:30;21.50;55.50
70807;DHT22;58882;52.170;5.386;2022-10-31T13:43:45;21.50;55.70
70807;DHT22;58882;52.170;5.386;2022-10-31T13:48:58;21.50;55.80
70807;DHT22;58882;52.170;5.386;2022-10-31T13:51:31;21.60;55.90
70807;DHT22;58882;52.170;5.386;2022-10-31T13:54:00;21.60;56.00
70807;DHT22;58882;52.170;5.386;2022-10-31T13:56:31;21.60;56.00
70807;DHT22;58882;52.170;5.386;2022-10-31T14:01:47;21.60;56.10
70807;DHT22;58882;52.170;5.386;2022-10-31T14:07:04;21.60;56.10
70807;DHT22;58882;52.170;5.386;2022-10-31T14:09:35;21.60;56.10
70807;DHT22;58882;52.170;5.386;2022-10-31T14:12:09;21.60;56.10
70807;DHT22;58882;52.170;5.386;2022-10-31T14:14:46;21.60;56.10
70807;DHT22;58882;52.170;5.386;2022-10-31T14:17:20;21.60;56.30
70807;DHT22;58882;52.170;5.386;2022-10-31T14:22:39;21.60;56.40
70807;DHT22;58882;52.170;5.386;2022-10-31T14:25:31;21.60;56.40
70807;DHT22;58882;52.170;5.386;2022-10-31T14:28:17;21.50;56.50
70807;DHT22;58882;52.170;5.386;2022-10-31T14:30:56;21.50;56.50
70807;DHT22;58882;52.170;5.386;2022-10-31T14:33:26;21.50;56.70
70807;DHT22;58882;52.170;5.386;2022-10-31T14:35:57;21.50;56.70
70807;DHT22;58882;52.170;5.386;2022-10-31T14:39:01;21.50;56.70
70807;DHT22;58882;52.170;5.386;2022-10-31T14:44:43;21.50;57.90
70807;DHT22;58882;52.170;5.386;2022-10-31T14:50:41;21.40;56.90
70807;DHT22;58882;52.170;5.386;2022-10-31T14:53:17;21.40;57.00
70807;DHT22;58882;52.170;5.386;2022-10-31T14:55:48;21.40;57.00
70807;DHT22;58882;52.170;5.386;2022-10-31T14:58:20;21.40;56.90
70807;DHT22;58882;52.170;5.386;2022-10-31T15:00:50;21.40;57.00
70807;DHT22;58882;52.170;5.386;2022-10-31T15:03:25;21.40;57.10
70807;DHT22;58882;52.170;5.386;2022-10-31T15:05:57;21.30;57.10
70807;DHT22;58882;52.170;5.386;2022-10-31T15:08:38;21.30;57.10
70807;DHT22;58882;52.170;5.386;2022-10-31T15:11:16;21.30;57.20
70807;DHT22;58882;52.170;5.386;2022-10-31T15:13:44;21.30;57.20
70807;DHT22;58882;52.170;5.386;2022-10-31T15:16:13;21.30;57.30
70807;DHT22;58882;52.170;5.386;2022-10-31T15:18:48;21.30;57.30
70807;DHT22;58882;52.170;5.386;2022-10-31T15:21:17;21.30;57.40
70807;DHT22;58882;52.170;5.386;2022-10-31T15:23:44;21.30;57.40
70807;DHT22;58882;52.170;5.386;2022-10-31T15:26:15;21.30;57.40
70807;DHT22;58882;52.170;5.386;2022-10-31T15:28:43;21.30;57.50
70807;DHT22;58882;52.170;5.386;2022-10-31T15:31:16;21.20;57.40
70807;DHT22;58882;52.170;5.386;2022-10-31T15:33:47;21.30;57.50
70807;DHT22;58882;52.170;5.386;2022-10-31T15:36:20;21.20;57.50
70807;DHT22;58882;52.170;5.386;2022-10-31T15:38:55;21.20;57.60
70807;DHT22;58882;52.170;5.386;2022-10-31T15:44:01;21.20;57.60
70807;DHT22;58882;52.170;5.386;2022-10-31T15:46:29;21.20;57.70
70807;DHT22;58882;52.170;5.386;2022-10-31T15:48:57;21.20;57.70
70807;DHT22;58882;52.170;5.386;2022-10-31T15:51:32;21.20;57.80
70807;DHT22;58882;52.170;5.386;2022-10-31T15:54:00;21.20;57.80
70807;DHT22;58882;52.170;5.386;2022-10-31T15:56:30;21.10;57.80
70807;DHT22;58882;52.170;5.386;2022-10-31T15:58:58;21.10;58.80
70807;DHT22;58882;52.170;5.386;2022-10-31T16:01:29;21.10;57.90
70807;DHT22;58882;52.170;5.386;2022-10-31T16:06:38;21.10;58.00
70807;DHT22;58882;52.170;5.386;2022-10-31T16:09:21;21.10;58.00
70807;DHT22;58882;52.170;5.386;2022-10-31T16:11:48;21.00;57.90
70807;DHT22;58882;52.170;5.386;2022-10-31T16:16:53;21.00;57.90
70807;DHT22;58882;52.170;5.386;2022-10-31T16:19:27;21.00;58.00
70807;DHT22;58882;52.170;5.386;2022-10-31T16:22:05;21.00;58.00
70807;DHT22;58882;52.170;5.386;2022-10-31T16:24:38;21.00;58.00
70807;DHT22;58882;52.170;5.386;2022-10-31T16:27:31;21.00;58.10
70807;DHT22;58882;52.170;5.386;2022-10-31T16:30:00;21.00;58.10
70807;DHT22;58882;52.170;5.386;2022-10-31T16:32:36;21.00;58.10
70807;DHT22;58882;52.170;5.386;2022-10-31T16:37:43;20.90;58.00
70807;DHT22;58882;52.170;5.386;2022-10-31T16:40:10;20.90;58.00
70807;DHT22;58882;52.170;5.386;2022-10-31T16:42:38;20.90;58.00
70807;DHT22;58882;52.170;5.386;2022-10-31T16:45:06;20.90;58.10
70807;DHT22;58882;52.170;5.386;2022-10-31T16:47:33;20.90;58.10
70807;DHT22;58882;52.170;5.386;2022-10-31T16:50:00;20.90;58.10
70807;DHT22;58882;52.170;5.386;2022-10-31T16:52:27;20.90;58.20
70807;DHT22;58882;52.170;5.386;2022-10-31T16:55:14;20.90;58.20
70807;DHT22;58882;52.170;5.386;2022-10-31T16:57:48;20.80;58.20
70807;DHT22;58882;52.170;5.386;2022-10-31T17:00:21;20.80;58.10
70807;DHT22;58882;52.170;5.386;2022-10-31T17:02:51;20.80;58.20
70807;DHT22;58882;52.170;5.386;2022-10-31T17:05:20;20.80;58.20
70807;DHT22;58882;52.170;5.386;2022-10-31T17:07:47;20.80;58.20
70807;DHT22;58882;52.170;5.386;2022-10-31T17:10:15;20.80;58.20
70807;DHT22;58882;52.170;5.386;2022-10-31T17:12:44;20.80;58.20
70807;DHT22;58882;52.170;5.386;2022-10-31T17:15:22;20.80;58.30
70807;DHT22;58882;52.170;5.386;2022-10-31T17:17:49;20.70;58.40
70807;DHT22;58882;52.170;5.386;2022-10-31T17:20:22;20.80;58.40
70807;DHT22;58882;52.170;5.386;2022-10-31T17:22:49;20.70;58.40
70807;DHT22;58882;52.170;5.386;2022-10-31T17:25:19;20.70;58.40
70807;DHT22;58882;52.170;5.386;2022-10-31T17:27:46;20.70;58.50
70807;DHT22;58882;52.170;5.386;2022-10-31T17:30:13;20.70;58.40
70807;DHT22;58882;52.170;5.386;2022-10-31T17:32:41;20.70;58.50
70807;DHT22;58882;52.170;5.386;2022-10-31T17:35:08;20.70;59.40
70807;DHT22;58882;52.170;5.386;2022-10-31T17:37:36;20.70;58.40
70807;DHT22;58882;52.170;5.386;2022-10-31T17:40:03;20.70;58.40
70807;DHT22;58882;52.170;5.386;2022-10-31T17:42:30;20.70;58.50
70807;DHT22;58882;52.170;5.386;2022-10-31T17:44:57;20.70;58.60
70807;DHT22;58882;52.170;5.386;2022-10-31T17:47:24;20.70;58.60
70807;DHT22;58882;52.170;5.386;2022-10-31T17:49:51;20.70;58.60
70807;DHT22;58882;52.170;5.386;2022-10-31T17:52:19;20.70;58.60
70807;DHT22;58882;52.170;5.386;2022-10-31T17:54:45;20.70;58.50
70807;DHT22;58882;52.170;5.386;2022-10-31T17:57:13;20.70;58.50
70807;DHT22;58882;52.170;5.386;2022-10-31T17:59:40;20.70;58.50
70807;DHT22;58882;52.170;5.386;2022-10-31T18:02:09;20.70;58.50
70807;DHT22;58882;52.170;5.386;2022-10-31T18:04:36;20.70;58.40
70807;DHT22;58882;52.170;5.386;2022-10-31T18:07:04;20.70;58.40
70807;DHT22;58882;52.170;5.386;2022-10-31T18:09:31;20.70;58.40